Time;durP1;ratioP1;P1;durP2;ratioP2;P2;SDS_P1;SDS_P2;PMS_P1;PMS_P2;Temp;Humidity;BMP_temperature;BMP_pressure;BME280_temperature;BME280_humidity;BME280_pressure;Samples;Min_cycle;Max_cycle;Signal;HPM_P1;HPM_P2
2021/04/09 00:02:56;;;;;;;6.13;4.03;;;2.50;98.80;;;;;;6217082;28;20044;-78
2021/04/09 00:05:57;;;;;;;6.95;4.30;;;1.90;99.30;;;;;;6216770;28;20072;-79
2021/04/09 00:08:58;;;;;;;7.90;4.70;;;2.80;99.40;;;;;;6185235;28;20026;-79
2021/04/09 00:11:58;;;;;;;6.53;4.40;;;2.40;99.70;;;;;;6216276;28;20073;-78
2021/04/09 00:14:59;;;;;;;7.03;4.13;;;2.00;99.90;;;;;;6216629;28;20427;-79
2021/04/09 00:17:59;;;;;;;7.93;4.72;;;2.10;99.90;;;;;;6203863;28;20025;-78
2021/04/09 00:21:00;;;;;;;9.15;4.95;;;1.20;99.90;;;;;;6218237;28;20088;-78
2021/04/09 00:24:01;;;;;;;9.20;4.30;;;2.70;99.90;;;;;;6216266;28;20104;-79
2021/04/09 00:27:01;;;;;;;5.88;3.95;;;1.50;99.60;;;;;;6184370;28;20034;-79
2021/04/09 00:30:04;;;;;;;5.35;3.90;;;1.40;98.70;;;;;;6216209;28;20033;-78
2021/04/09 00:33:05;;;;;;;6.75;4.50;;;1.60;98.40;;;;;;6184843;28;20045;-79
2021/04/09 00:36:05;;;;;;;6.50;4.13;;;2.80;98.80;;;;;;6216494;28;20042;-79
2021/04/09 00:39:09;;;;;;;11.88;4.30;;;1.90;98.20;;;;;;6215849;28;20080;-79
2021/04/09 00:42:16;;;;;;;6.50;3.97;;;1.90;99.90;;;;;;6216892;28;20032;-78
2021/04/09 00:45:17;;;;;;;4.82;4.03;;;2.80;98.70;;;;;;6216325;28;20033;-79
2021/04/09 00:48:18;;;;;;;6.72;3.95;;;;;;;;;;6215906;28;20073;-79
2021/04/09 00:51:19;;;;;;;9.82;4.05;;;1.80;97.50;;;;;;6217596;28;20049;-79
2021/04/09 00:54:19;;;;;;;5.88;4.15;;;2.30;98.80;;;;;;6211986;28;20112;-79
2021/04/09 00:57:20;;;;;;;5.95;4.00;;;1.70;99.90;;;;;;6220476;28;20072;-78
2021/04/09 01:00:21;;;;;;;5.10;3.75;;;1.50;99.90;;;;;;6220946;28;20468;-79
2021/04/09 01:03:21;;;;;;;7.30;4.07;;;1.60;99.90;;;;;;6204508;28;20033;-78
2021/04/09 01:06:22;;;;;;;6.22;3.88;;;1.80;99.90;;;;;;6220704;28;20069;-79
2021/04/09 01:09:23;;;;;;;4.78;3.88;;;;;;;;;;6200152;28;20038;-79
2021/04/09 01:12:24;;;;;;;7.03;4.00;;;;;;;;;;6203953;28;20129;-79
2021/04/09 01:15:25;;;;;;;8.52;3.90;;;;;;;;;;6222154;28;20048;-78
2021/04/09 01:18:30;;;;;;;7.05;4.05;;;1.90;99.90;;;;;;6220735;28;20649;-79
2021/04/09 01:21:51;;;;;;;5.13;3.67;;;2.10;97.90;;;;;;6220058;28;20535;-78
2021/04/09 01:25:12;;;;;;;5.22;4.10;;;1.80;99.90;;;;;;6220474;28;20068;-79
2021/04/09 01:28:27;;;;;;;5.22;3.92;;;1.90;99.90;;;;;;6221893;28;20109;-78
2021/04/09 01:31:27;;;;;;;7.20;3.83;;;2.00;96.60;;;;;;6222180;28;20034;-79
2021/04/09 01:34:56;;;;;;;6.47;4.15;;;2.30;98.00;;;;;;6221908;28;20025;-79
2021/04/09 01:38:00;;;;;;;6.97;4.13;;;2.00;99.90;;;;;;6207286;28;20042;-78
2021/04/09 01:41:00;;;;;;;7.40;3.70;;;2.50;99.90;;;;;;6204082;28;20058;-78
2021/04/09 01:44:02;;;;;;;5.07;3.60;;;;;;;;;;6204327;28;20025;-79
2021/04/09 01:47:03;;;;;;;3.83;3.42;;;1.70;99.90;;;;;;6220099;28;20044;-78
2021/04/09 01:50:03;;;;;;;5.35;3.58;;;1.70;98.60;;;;;;6187949;28;20058;-78
2021/04/09 01:53:04;;;;;;;5.63;3.40;;;1.80;98.70;;;;;;6219553;28;20132;-79
2021/04/09 01:56:05;;;;;;;9.77;4.00;;;1.80;98.90;;;;;;6203247;28;20069;-79
2021/04/09 01:59:06;;;;;;;5.72;3.25;;;1.60;98.70;;;;;;6220138;28;20038;-79
2021/04/09 02:02:07;;;;;;;5.50;3.50;;;2.00;98.60;;;;;;6219662;28;20489;-79
2021/04/09 02:05:08;;;;;;;5.90;3.50;;;2.00;99.20;;;;;;6203110;28;20490;-79
2021/04/09 02:08:10;;;;;;;7.63;3.60;;;1.70;98.40;;;;;;6187647;28;20049;-79
2021/04/09 02:11:10;;;;;;;4.85;3.45;;;2.70;98.40;;;;;;6219093;28;20107;-79
2021/04/09 02:14:15;;;;;;;4.75;3.13;;;1.80;98.70;;;;;;6202993;28;20034;-78
2021/04/09 02:17:15;;;;;;;5.47;3.50;;;1.70;98.20;;;;;;6219564;28;20341;-79
2021/04/09 02:20:17;;;;;;;6.85;3.65;;;1.70;98.40;;;;;;6219001;28;20037;-78
2021/04/09 02:23:18;;;;;;;3.53;3.00;;;2.50;99.00;;;;;;6219121;28;20032;-79
2021/04/09 02:26:19;;;;;;;4.57;3.30;;;2.10;98.30;;;;;;6221198;28;20052;-79
2021/04/09 02:29:20;;;;;;;4.38;3.00;;;1.60;98.00;;;;;;6218730;28;20034;-79
2021/04/09 02:32:22;;;;;;;4.65;3.13;;;2.40;98.00;;;;;;6218641;28;20124;-79
2021/04/09 02:35:22;;;;;;;3.40;2.92;;;1.80;97.70;;;;;;6220654;28;20476;-79
2021/04/09 02:38:24;;;;;;;3.05;2.75;;;2.00;96.90;;;;;;6202154;28;20029;-79
2021/04/09 02:41:28;;;;;;;5.00;3.42;;;1.90;96.70;;;;;;6218872;28;20044;-78
2021/04/09 02:44:28;;;;;;;3.90;2.92;;;2.30;97.20;;;;;;6218391;28;20022;-79
2021/04/09 02:47:29;;;;;;;4.53;2.97;;;2.40;96.40;;;;;;6218310;28;20483;-78
2021/04/09 02:50:36;;;;;;;5.80;3.10;;;2.00;95.30;;;;;;6218360;28;20053;-79
2021/04/09 02:53:38;;;;;;;3.65;3.20;;;2.30;95.60;;;;;;6207234;28;20038;-79
2021/04/09 02:56:39;;;;;;;6.15;3.72;;;2.70;95.30;;;;;;6202354;28;20084;-79
2021/04/09 02:59:39;;;;;;;4.15;3.30;;;2.40;95.30;;;;;;6218569;28;20406;-78
2021/04/09 03:02:40;;;;;;;12.40;6.38;;;2.90;95.50;;;;;;6186259;28;20080;-78
2021/04/09 03:05:41;;;;;;;5.95;2.90;;;3.10;95.80;;;;;;6217829;28;20037;-78
2021/04/09 03:08:41;;;;;;;12.88;7.63;;;2.10;95.10;;;;;;6201739;28;20025;-78
2021/04/09 03:11:42;;;;;;;4.68;3.40;;;2.30;94.70;;;;;;6217444;28;20485;-78
2021/04/09 03:14:45;;;;;;;3.83;3.10;;;2.40;95.10;;;;;;6217568;28;20030;-79
2021/04/09 03:18:04;;;;;;;4.78;3.63;;;2.20;94.70;;;;;;6217574;28;20026;-78
2021/04/09 03:21:05;;;;;;;5.10;3.53;;;2.20;93.80;;;;;;6217829;28;20049;-79
2021/04/09 03:24:07;;;;;;;4.63;2.92;;;2.30;94.70;;;;;;6218259;28;20027;-78
2021/04/09 03:27:09;;;;;;;4.22;2.88;;;2.40;94.60;;;;;;6217981;28;20034;-78
2021/04/09 03:30:10;;;;;;;5.40;3.90;;;2.80;94.50;;;;;;6217650;28;20032;-79
2021/04/09 03:33:10;;;;;;;6.78;3.25;;;2.50;94.30;;;;;;6217874;28;20112;-78
2021/04/09 03:36:11;;;;;;;4.55;3.28;;;2.50;94.40;;;;;;6217749;28;20380;-78
2021/04/09 03:39:11;;;;;;;4.38;3.03;;;2.40;99.90;;;;;;6219645;28;20104;-78
2021/04/09 03:42:12;;;;;;;5.70;2.97;;;2.80;94.70;;;;;;6217824;28;20416;-78
2021/04/09 03:45:13;;;;;;;4.15;2.88;;;3.40;94.10;;;;;;6200477;28;20057;-79
2021/04/09 03:48:13;;;;;;;4.15;2.90;;;2.60;94.00;;;;;;6217378;28;20030;-78
2021/04/09 03:51:14;;;;;;;4.55;3.05;;;3.30;93.40;;;;;;6216844;28;20683;-79
2021/04/09 03:54:14;;;;;;;4.85;2.88;;;2.90;93.30;;;;;;6217426;28;20114;-79
2021/04/09 03:57:15;;;;;;;3.58;2.85;;;3.10;93.30;;;;;;6218819;28;20108;-79
2021/04/09 04:00:17;;;;;;;4.65;3.22;;;3.10;93.10;;;;;;6219117;28;20131;-78
2021/04/09 04:03:17;;;;;;;4.97;3.10;;;3.10;92.70;;;;;;6185844;28;20396;-79
2021/04/09 04:06:18;;;;;;;5.03;3.47;;;3.30;93.90;;;;;;6218596;28;20040;-79
2021/04/09 04:09:18;;;;;;;4.78;3.20;;;3.00;92.50;;;;;;6217085;28;20030;-78
2021/04/09 04:12:19;;;;;;;4.47;3.13;;;3.20;93.00;;;;;;6184831;28;20364;-79
2021/04/09 04:15:20;;;;;;;6.07;2.80;;;2.90;99.90;;;;;;6217057;28;20029;-79
2021/04/09 04:18:20;;;;;;;4.72;3.08;;;3.00;99.90;;;;;;6216863;28;20046;-79
2021/04/09 04:21:21;;;;;;;4.72;3.40;;;3.00;99.00;;;;;;6197224;28;20065;-79
2021/04/09 04:24:21;;;;;;;4.97;2.80;;;4.40;92.70;;;;;;6200202;28;20472;-78
2021/04/09 04:27:22;;;;;;;4.20;3.10;;;3.20;99.90;;;;;;6211231;28;20030;-79
2021/04/09 04:30:23;;;;;;;8.20;3.30;;;3.10;99.90;;;;;;6218096;28;20069;-79
2021/04/09 04:33:24;;;;;;;4.55;3.22;;;3.00;99.90;;;;;;6218586;28;20450;-79
2021/04/09 04:36:25;;;;;;;6.18;3.30;;;;;;;;;;6185692;28;20030;-79
2021/04/09 04:39:25;;;;;;;6.15;3.13;;;;;;;;;;6217787;28;20101;-78
2021/04/09 04:42:29;;;;;;;7.18;3.58;;;;;;;;;;6218096;28;20456;-79
2021/04/09 04:45:30;;;;;;;5.00;2.95;;;;;;;;;;6213288;28;20410;-78
2021/04/09 04:48:31;;;;;;;6.68;3.47;;;;;;;;;;6215611;28;20041;-79
2021/04/09 04:51:33;;;;;;;6.93;3.70;;;;;;;;;;6218109;28;20080;-78
2021/04/09 04:54:34;;;;;;;7.72;3.70;;;;;;;;;;6216611;28;20022;-79
2021/04/09 04:57:34;;;;;;;6.13;3.58;;;;;;;;;;6217992;28;20037;-78
2021/04/09 05:00:35;;;;;;;6.38;5.22;;;;;;;;;;6216757;28;20030;-79
2021/04/09 05:03:36;;;;;;;6.25;3.33;;;;;;;;;;6216960;28;20415;-79
2021/04/09 05:06:37;;;;;;;8.57;3.67;;;;;;;;;;6200207;28;20056;-79
2021/04/09 05:09:38;;;;;;;11.65;3.60;;;;;;;;;;6217956;28;20105;-79
2021/04/09 05:12:39;;;;;;;10.20;4.25;;;;;;;;;;6216364;28;20408;-79
2021/04/09 05:15:40;;;;;;;5.40;3.42;;;;;;;;;;6217885;28;20077;-79
2021/04/09 05:18:41;;;;;;;5.18;3.70;;;3.70;97.20;;;;;;6199556;28;20036;-79
2021/04/09 05:21:42;;;;;;;5.13;3.45;;;3.60;98.80;;;;;;6200204;28;20435;-79
2021/04/09 05:24:42;;;;;;;6.50;4.55;;;4.00;91.90;;;;;;6183812;28;20038;-79
2021/04/09 05:27:43;;;;;;;6.72;3.75;;;4.90;91.70;;;;;;6216786;28;20076;-79
2021/04/09 05:30:43;;;;;;;5.63;3.92;;;3.90;99.30;;;;;;6199843;28;20049;-79
2021/04/09 05:33:44;;;;;;;6.20;4.07;;;;;;;;;;6216543;28;20072;-79
2021/04/09 05:36:45;;;;;;;7.30;5.07;;;3.90;89.40;;;;;;6199978;28;20587;-79
2021/04/09 05:39:45;;;;;;;5.88;3.65;;;4.60;90.80;;;;;;6220811;28;20050;-79
2021/04/09 05:42:46;;;;;;;6.32;4.50;;;5.00;91.40;;;;;;6220382;28;20022;-79
2021/04/09 05:45:47;;;;;;;5.85;4.15;;;4.40;91.50;;;;;;6219975;28;20047;-79
2021/04/09 05:48:48;;;;;;;7.25;3.97;;;5.90;91.90;;;;;;6222391;28;20033;-79
2021/04/09 05:51:48;;;;;;;6.20;4.13;;;4.10;91.30;;;;;;6221709;28;20435;-79
2021/04/09 05:54:49;;;;;;;6.43;3.83;;;4.50;92.00;;;;;;6222079;28;20026;-79
2021/04/09 05:57:49;;;;;;;9.55;4.53;;;5.20;92.20;;;;;;6219672;28;20040;-79
2021/04/09 06:00:50;;;;;;;5.68;3.65;;;5.30;92.70;;;;;;6220447;28;20116;-79
2021/04/09 06:03:51;;;;;;;8.13;4.00;;;4.40;92.20;;;;;;6221859;28;20108;-79
2021/04/09 06:06:51;;;;;;;5.50;4.05;;;5.90;92.30;;;;;;6219800;28;20504;-79
2021/04/09 06:09:52;;;;;;;5.15;4.07;;;5.40;92.50;;;;;;6204204;28;20133;-79
2021/04/09 06:12:52;;;;;;;6.25;3.85;;;4.80;91.60;;;;;;6219504;28;20064;-79
2021/04/09 06:15:53;;;;;;;6.20;4.30;;;5.10;92.30;;;;;;6188165;28;20030;-79
2021/04/09 06:18:54;;;;;;;7.43;4.45;;;5.90;92.90;;;;;;6219552;28;20037;-79
2021/04/09 06:21:54;;;;;;;7.22;4.10;;;5.30;93.60;;;;;;6219661;28;20056;-79
2021/04/09 06:24:55;;;;;;;7.97;4.03;;;5.60;94.20;;;;;;6219527;28;20044;-79
2021/04/09 06:27:56;;;;;;;6.07;4.32;;;;;;;;;;6221587;28;20025;-79
2021/04/09 06:30:58;;;;;;;7.35;3.72;;;;;;;;;;6218973;28;20063;-79
2021/04/09 06:33:59;;;;;;;5.82;3.72;;;5.00;85.20;;;;;;6235539;28;20049;-79
2021/04/09 06:37:00;;;;;;;9.07;4.60;;;5.10;84.90;;;;;;6219094;28;20037;-79
2021/04/09 06:40:01;;;;;;;6.50;4.05;;;6.50;85.30;;;;;;6220777;28;20084;-79
2021/04/09 06:43:01;;;;;;;8.15;4.10;;;6.30;86.90;;;;;;6219113;28;20105;-79
2021/04/09 06:46:02;;;;;;;8.93;4.25;;;6.30;86.70;;;;;;6218594;28;20037;-79
2021/04/09 06:49:03;;;;;;;5.80;4.00;;;5.80;82.80;;;;;;6218680;28;20365;-79
2021/04/09 06:52:04;;;;;;;6.53;4.10;;;5.90;93.50;;;;;;6210250;28;20061;-79
2021/04/09 06:55:05;;;;;;;5.32;4.00;;;5.90;80.00;;;;;;6218807;28;20472;-79
2021/04/09 06:58:06;;;;;;;5.93;4.15;;;6.50;94.40;;;;;;6202733;28;20026;-79
2021/04/09 07:01:06;;;;;;;8.32;4.40;;;6.20;82.00;;;;;;6218479;28;20030;-79
2021/04/09 07:04:08;;;;;;;9.68;5.68;;;6.70;83.60;;;;;;6220295;28;20066;-79
2021/04/09 07:07:10;;;;;;;9.82;7.50;;;6.50;82.80;;;;;;6218756;28;20032;-80
2021/04/09 07:10:11;;;;;;;5.53;4.30;;;6.60;79.50;;;;;;6187528;28;20369;-79
2021/04/09 07:13:12;;;;;;;5.72;4.28;;;6.70;78.10;;;;;;6218532;28;20045;-79
2021/04/09 07:16:12;;;;;;;5.57;3.97;;;6.80;79.90;;;;;;6187392;28;20464;-79
2021/04/09 07:19:13;;;;;;;6.38;4.15;;;6.90;93.00;;;;;;6218482;28;20033;-78
2021/04/09 07:22:14;;;;;;;7.13;5.03;;;;;;;;;;6218419;28;20040;-79
2021/04/09 07:25:16;;;;;;;5.80;4.97;;;7.10;76.50;;;;;;6219736;28;20074;-79
2021/04/09 07:28:18;;;;;;;5.13;3.40;;;7.50;74.50;;;;;;6201735;28;20034;-79
2021/04/09 07:31:27;;;;;;;7.28;4.80;;;8.00;73.70;;;;;;6218061;28;20034;-79
2021/04/09 07:34:53;;;;;;;11.82;5.03;;;8.00;75.60;;;;;;6218006;28;20029;-79
2021/04/09 07:37:55;;;;;;;6.03;4.18;;;8.20;88.10;;;;;;6218383;28;20032;-79
2021/04/09 07:41:05;;;;;;;7.57;5.10;;;8.50;73.30;;;;;;6186468;28;20053;-79
2021/04/09 07:44:14;;;;;;;5.72;4.65;;;8.50;68.20;;;;;;6217986;28;20084;-79
2021/04/09 07:47:15;;;;;;;9.20;4.43;;;9.00;70.50;;;;;;6217668;28;20582;-79
2021/04/09 07:50:15;;;;;;;5.80;3.88;;;8.80;69.90;;;;;;6217924;28;20026;-79
2021/04/09 07:53:45;;;;;;;5.55;3.67;;;9.10;88.50;;;;;;6219181;28;20132;-79
2021/04/09 07:56:49;;;;;;;6.68;4.47;;;9.70;67.40;;;;;;6203725;28;20053;-79
2021/04/09 07:59:49;;;;;;;8.20;5.40;;;9.70;70.10;;;;;;6217556;28;20379;-79
2021/04/09 08:02:52;;;;;;;6.88;4.45;;;10.20;62.60;;;;;;6217337;28;20061;-79
2021/04/09 08:06:12;;;;;;;5.57;4.40;;;10.20;64.00;;;;;;6217505;28;20030;-80
2021/04/09 08:09:13;;;;;;;7.35;4.45;;;10.60;68.30;;;;;;6202014;28;20053;-79
2021/04/09 08:12:26;;;;;;;7.93;6.35;;;11.00;68.20;;;;;;6217284;28;20042;-80
2021/04/09 08:15:32;;;;;;;5.60;4.15;;;12.20;78.50;;;;;;6219478;28;20083;-80
2021/04/09 08:18:33;;;;;;;6.10;4.55;;;12.50;58.70;;;;;;6217373;28;20029;-80
2021/04/09 08:21:36;;;;;;;7.03;4.43;;;13.10;56.60;;;;;;6216978;28;20502;-80
2021/04/09 08:24:36;;;;;;;7.47;5.18;;;13.50;56.70;;;;;;6201109;28;20096;-80
2021/04/09 08:27:38;;;;;;;8.27;4.13;;;;;;;;;;6217027;28;20057;-80
2021/04/09 08:30:38;;;;;;;5.53;4.20;;;14.10;50.50;;;;;;6218106;28;20459;-80
2021/04/09 08:33:39;;;;;;;8.02;4.32;;;14.60;51.00;;;;;;6185839;28;20038;-78
2021/04/09 08:36:43;;;;;;;21.30;16.75;;;15.00;51.30;;;;;;6217116;28;20057;-78
2021/04/09 08:39:44;;;;;;;6.25;4.28;;;15.30;47.50;;;;;;6216695;28;20053;-78
2021/04/09 08:42:45;;;;;;;10.43;6.55;;;15.40;47.90;;;;;;6214548;28;20034;-78
2021/04/09 08:45:45;;;;;;;3.30;3.00;;;16.40;48.40;;;;;;6216648;28;20523;-78
2021/04/09 08:48:46;;;;;;;7.32;4.50;;;16.90;47.20;;;;;;6216427;28;20037;-78
2021/04/09 08:51:46;;;;;;;10.50;4.07;;;17.40;43.40;;;;;;6200695;28;20459;-78
2021/04/09 08:54:51;;;;;;;4.53;3.70;;;17.90;41.20;;;;;;6216543;28;20037;-78
2021/04/09 08:57:52;;;;;;;4.43;3.25;;;17.90;41.80;;;;;;6218667;28;20022;-78
2021/04/09 09:00:54;;;;;;;5.18;3.33;;;18.10;41.10;;;;;;6216785;28;20465;-78
2021/04/09 09:04:22;;;;;;;8.07;4.95;;;18.70;41.40;;;;;;6217234;28;20034;-80
2021/04/09 09:07:51;;;;;;;5.00;3.50;;;18.40;34.60;;;;;;6205940;28;20175;-80
2021/04/09 09:10:52;;;;;;;4.45;3.05;;;17.80;34.70;;;;;;6218107;28;20034;-80
2021/04/09 09:13:53;;;;;;;4.70;2.80;;;18.10;41.30;;;;;;6218695;28;20610;-78
2021/04/09 09:16:54;;;;;;;7.03;3.08;;;18.60;35.00;;;;;;6221476;28;20520;-81
2021/04/09 09:20:18;;;;;;;2.88;2.33;;;18.30;34.40;;;;;;6189303;28;20353;-78
2021/04/09 09:23:18;;;;;;;4.20;2.83;;;18.80;51.90;;;;;;6221241;28;20026;-78
2021/04/09 09:26:20;;;;;;;4.55;2.80;;;18.80;35.20;;;;;;6220865;28;20050;-79
2021/04/09 09:29:27;;;;;;;4.70;3.08;;;19.10;35.50;;;;;;6221201;28;20033;-80
2021/04/09 09:32:30;;;;;;;3.95;2.90;;;19.40;33.50;;;;;;6220856;28;20030;-78
2021/04/09 09:35:59;;;;;;;4.68;2.97;;;19.20;35.30;;;;;;6222562;28;20049;-80
2021/04/09 09:39:38;;;;;;;6.40;3.10;;;19.40;31.50;;;;;;6220179;28;20057;-80
2021/04/09 09:42:43;;;;;;;4.50;3.17;;;19.30;32.70;;;;;;6220879;28;20038;-80
2021/04/09 09:45:43;;;;;;;4.72;2.72;;;19.60;34.60;;;;;;6189094;28;20438;-80
2021/04/09 09:48:45;;;;;;;5.95;2.90;;;20.30;36.60;;;;;;6203971;28;20037;-80
2021/04/09 09:51:45;;;;;;;4.47;2.73;;;19.40;37.30;;;;;;6220261;28;20041;-81
2021/04/09 09:54:46;;;;;;;5.63;2.90;;;19.10;38.90;;;;;;6204054;28;20064;-80
2021/04/09 09:57:48;;;;;;;4.93;3.03;;;18.90;36.70;;;;;;6219974;28;20069;-80
2021/04/09 10:01:02;;;;;;;3.63;2.83;;;18.80;41.30;;;;;;6220137;28;20117;-81
2021/04/09 10:04:03;;;;;;;7.07;3.25;;;18.60;57.50;;;;;;6220470;28;20034;-80
2021/04/09 10:07:07;;;;;;;8.35;3.88;;;18.70;53.90;;;;;;6220323;28;20026;-81
2021/04/09 10:10:09;;;;;;;4.40;3.08;;;18.70;37.10;;;;;;6216913;28;20176;-81
2021/04/09 10:13:37;;;;;;;4.60;3.10;;;17.70;68.70;;;;;;6203991;28;20041;-80
2021/04/09 10:20:53;;;;;;;4.55;3.20;;;;;;;;;;6222274;28;20034;-80
2021/04/09 10:24:16;;;;;;;3.78;3.08;;;16.90;41.60;;;;;;6219962;28;20138;-79
2021/04/09 10:27:17;;;;;;;5.03;3.50;;;17.50;45.20;;;;;;6219304;28;20061;-80
2021/04/09 10:30:25;;;;;;;4.85;3.13;;;18.10;47.50;;;;;;6219643;28;20947;-80
2021/04/09 10:33:38;;;;;;;5.63;3.08;;;18.50;46.30;;;;;;6188170;28;20049;-79
2021/04/09 10:36:44;;;;;;;6.32;3.35;;;18.70;56.50;;;;;;6203054;28;20108;-79
2021/04/09 10:39:44;;;;;;;7.03;3.38;;;19.40;45.20;;;;;;6209753;28;20069;-80
2021/04/09 10:43:00;;;;;;;5.13;3.42;;;19.90;48.70;;;;;;6178388;28;20492;-80
2021/04/09 10:46:12;;;;;;;4.75;3.13;;;20.10;59.50;;;;;;6194033;28;20117;-80
2021/04/09 10:49:17;;;;;;;7.95;3.60;;;20.40;54.50;;;;;;6194433;28;20117;-79
2021/04/09 10:52:20;;;;;;;5.15;3.38;;;20.30;43.40;;;;;;6193888;28;20042;-80
2021/04/09 10:55:20;;;;;;;;;;;20.30;56.90;;;;;;6194899;28;20445;-80
2021/04/09 10:58:21;;;;;;;6.72;3.67;;;19.80;58.80;;;;;;6193818;28;19912;-80
2021/04/09 11:01:24;;;;;;;5.05;3.17;;;19.20;58.90;;;;;;6210201;28;20045;-80
2021/04/09 11:04:26;;;;;;;7.00;3.80;;;18.80;46.50;;;;;;6177219;28;20550;-80
2021/04/09 11:07:39;;;;;;;4.57;3.40;;;18.30;58.70;;;;;;6177900;28;20022;-80
2021/04/09 11:10:40;;;;;;;7.43;4.72;;;18.40;60.40;;;;;;6192638;28;20695;-80
2021/04/09 11:13:42;;;;;;;7.95;3.97;;;18.20;46.10;;;;;;6209255;28;20042;-80
2021/04/09 11:16:57;;;;;;;5.10;3.17;;;18.20;47.00;;;;;;6194057;28;20037;-80
2021/04/09 11:19:59;;;;;;;8.82;4.95;;;18.20;42.90;;;;;;6193406;28;20034;-79
2021/04/09 11:23:07;;;;;;;6.85;4.35;;;18.30;48.10;;;;;;6176966;28;20030;-80
2021/04/09 11:26:18;;;;;;;5.82;3.78;;;18.20;42.00;;;;;;6193090;28;20034;-80
2021/04/09 11:29:25;;;;;;;7.13;4.78;;;18.00;44.60;;;;;;6192858;28;20030;-80
2021/04/09 11:32:26;;;;;;;5.53;3.95;;;17.90;59.90;;;;;;6192763;28;20397;-80
2021/04/09 11:35:33;;;;;;;6.28;3.50;;;18.00;47.10;;;;;;6192604;28;20026;-79
2021/04/09 11:38:35;;;;;;;6.00;4.63;;;18.10;46.90;;;;;;6172604;28;608761;-79
2021/04/09 11:41:36;;;;;;;5.95;3.80;;;18.10;49.70;;;;;;6201483;28;20038;-80
2021/04/09 11:44:38;;;;;;;8.03;3.70;;;17.80;47.70;;;;;;6201421;28;20391;-80
2021/04/09 11:47:42;;;;;;;6.45;3.70;;;17.60;50.00;;;;;;6218162;28;20034;-79
2021/04/09 11:50:43;;;;;;;6.40;3.67;;;17.30;49.30;;;;;;6217204;28;20034;-80
2021/04/09 11:54:05;;;;;;;7.32;4.38;;;17.40;49.00;;;;;;6218268;28;20053;-80
2021/04/09 11:57:26;;;;;;;5.18;3.63;;;17.40;46.60;;;;;;6217450;28;20040;-80
2021/04/09 12:00:30;;;;;;;6.18;3.28;;;17.50;59.90;;;;;;6217601;28;20025;-80
2021/04/09 12:03:43;;;;;;;5.43;3.72;;;17.60;62.60;;;;;;6219505;28;20026;-80
2021/04/09 12:06:44;;;;;;;6.13;3.67;;;17.70;46.10;;;;;;6217575;28;20092;-80
2021/04/09 12:09:46;;;;;;;7.90;4.63;;;18.00;49.80;;;;;;6217485;28;20120;-80
2021/04/09 12:12:47;;;;;;;6.15;3.28;;;18.10;51.60;;;;;;6212814;28;20169;-80
2021/04/09 12:15:47;;;;;;;7.20;3.90;;;18.40;54.00;;;;;;6185980;28;20389;-80
2021/04/09 12:18:48;;;;;;;7.45;3.53;;;18.60;51.30;;;;;;6217340;28;20025;-80
2021/04/09 12:21:52;;;;;;;4.55;3.33;;;18.50;50.70;;;;;;6213286;28;20048;-80
2021/04/09 12:24:54;;;;;;;7.43;3.45;;;18.40;52.10;;;;;;6185817;28;20033;-80
2021/04/09 12:27:54;;;;;;;7.32;3.50;;;18.30;51.00;;;;;;6216999;28;20057;-80
2021/04/09 12:30:55;;;;;;;7.20;3.17;;;18.60;49.30;;;;;;6215473;28;20030;-80
2021/04/09 12:33:55;;;;;;;7.18;3.83;;;19.00;48.50;;;;;;6200245;28;20113;-80
2021/04/09 12:36:56;;;;;;;8.00;3.75;;;19.30;48.90;;;;;;6211612;28;20135;-80
2021/04/09 12:39:57;;;;;;;9.90;3.80;;;19.30;50.00;;;;;;6200731;28;20472;-79
2021/04/09 12:42:58;;;;;;;5.43;3.03;;;19.30;52.00;;;;;;6211469;28;20480;-80
2021/04/09 12:45:59;;;;;;;6.95;3.90;;;19.30;49.30;;;;;;6216645;28;20038;-80
2021/04/09 12:49:00;;;;;;;5.30;3.45;;;19.30;50.80;;;;;;6219864;28;20041;-80
2021/04/09 12:52:00;;;;;;;6.80;3.30;;;19.10;49.10;;;;;;6202109;28;20042;-80
2021/04/09 12:58:59;;;;;;;6.75;3.50;;;;;;;;;;6223665;28;20022;-80
2021/04/09 13:01:59;;;;;;;7.07;3.40;;;19.40;57.00;;;;;;6237885;28;20072;-81
2021/04/09 13:05:00;;;;;;;4.97;3.08;;;19.30;60.60;;;;;;6221979;28;20053;-80
2021/04/09 13:08:00;;;;;;;5.68;3.25;;;19.20;60.00;;;;;;6192779;28;20049;-80
2021/04/09 13:11:01;;;;;;;7.18;3.70;;;19.20;62.40;;;;;;6223147;28;20038;-81
2021/04/09 13:14:02;;;;;;;8.20;3.20;;;19.00;52.70;;;;;;6221424;28;20435;-80
2021/04/09 13:17:03;;;;;;;4.60;2.90;;;18.90;50.30;;;;;;6189837;28;20022;-80
2021/04/09 13:20:04;;;;;;;7.18;3.28;;;18.80;51.30;;;;;;6213391;28;20084;-80
2021/04/09 13:23:05;;;;;;;4.53;3.10;;;18.80;48.30;;;;;;6221160;28;20038;-80
2021/04/09 13:26:06;;;;;;;5.32;3.08;;;18.80;50.20;;;;;;6220852;28;20037;-80
2021/04/09 13:29:06;;;;;;;5.25;2.90;;;18.80;50.00;;;;;;6222417;28;20079;-80
2021/04/09 13:32:07;;;;;;;6.35;2.70;;;19.00;51.30;;;;;;6220752;28;20033;-80
2021/04/09 13:35:08;;;;;;;4.18;2.53;;;19.00;51.60;;;;;;6220683;28;20034;-81
2021/04/09 13:38:11;;;;;;;7.20;2.90;;;19.20;52.30;;;;;;6205085;28;20428;-80
2021/04/09 13:41:11;;;;;;;6.18;3.47;;;19.00;50.10;;;;;;6211622;28;20052;-79
2021/04/09 13:44:24;;;;;;;4.90;2.72;;;17.50;65.80;;;;;;6205660;28;20037;-80
2021/04/09 13:47:24;;;;;;;7.20;2.70;;;18.80;47.60;;;;;;6210612;28;20120;-80
2021/04/09 13:50:25;;;;;;;6.22;2.50;;;18.90;51.50;;;;;;6220887;28;20048;-80
2021/04/09 13:53:26;;;;;;;7.72;2.70;;;18.80;49.50;;;;;;6204105;28;20049;-80
2021/04/09 13:56:26;;;;;;;8.10;2.75;;;18.40;50.40;;;;;;6220304;28;20112;-80
2021/04/09 13:59:27;;;;;;;4.43;2.70;;;18.20;48.80;;;;;;6201795;28;20036;-80
2021/04/09 14:02:28;;;;;;;6.53;2.70;;;18.00;48.80;;;;;;6222404;28;20113;-79
2021/04/09 14:05:28;;;;;;;5.55;2.75;;;18.00;49.60;;;;;;6221889;28;20022;-80
2021/04/09 14:08:29;;;;;;;6.70;2.80;;;17.80;49.10;;;;;;6220159;28;20116;-80
2021/04/09 14:11:29;;;;;;;6.88;2.53;;;17.80;65.90;;;;;;6218973;28;20465;-80
2021/04/09 14:14:31;;;;;;;5.47;2.60;;;17.90;49.60;;;;;;6205511;28;20036;-80
2021/04/09 14:17:31;;;;;;;6.20;2.47;;;17.70;48.00;;;;;;6172186;28;20038;-79
2021/04/09 14:20:51;;;;;;;7.15;2.45;;;17.40;48.80;;;;;;6203615;28;20488;-80
2021/04/09 14:23:52;;;;;;;4.43;2.33;;;17.40;49.10;;;;;;6191136;28;20033;-80
2021/04/09 14:27:02;;;;;;;9.18;2.70;;;17.30;49.50;;;;;;6221610;28;20407;-79
2021/04/09 14:30:04;;;;;;;6.57;2.70;;;17.30;50.70;;;;;;6187855;28;20025;-80
2021/04/09 14:33:05;;;;;;;5.70;2.67;;;17.50;49.10;;;;;;6203101;28;20050;-80
2021/04/09 14:36:07;;;;;;;4.25;2.50;;;17.50;47.70;;;;;;6188071;28;20042;-80
2021/04/09 14:39:08;;;;;;;9.10;2.65;;;17.40;49.60;;;;;;6202763;28;20057;-80
2021/04/09 14:42:09;;;;;;;5.57;2.40;;;17.90;50.20;;;;;;6206424;28;20065;-80
2021/04/09 14:45:17;;;;;;;5.13;2.20;;;17.80;48.80;;;;;;6218900;28;20038;-80
2021/04/09 14:48:18;;;;;;;3.83;2.35;;;17.80;46.90;;;;;;6219239;28;20041;-80
2021/04/09 14:51:19;;;;;;;7.07;2.50;;;17.90;64.50;;;;;;6220604;28;20034;-81
2021/04/09 14:54:20;;;;;;;5.43;2.38;;;17.90;48.70;;;;;;6202993;28;20030;-81
2021/04/09 14:57:21;;;;;;;4.60;2.60;;;18.00;47.80;;;;;;6218797;28;20034;-80
2021/04/09 15:00:21;;;;;;;5.32;3.00;;;17.90;48.40;;;;;;6219346;28;20111;-80
2021/04/09 15:03:54;;;;;;;4.35;2.40;;;17.90;47.60;;;;;;6203578;28;20028;-80
2021/04/09 15:06:55;;;;;;;;;;;18.20;45.20;;;;;;6091036;29;20151;-80
2021/04/09 15:09:55;;;;;;;3.90;2.40;;;17.60;48.00;;;;;;6081209;29;19911;-80
2021/04/09 15:12:56;;;;;;;3.63;2.42;;;17.80;49.10;;;;;;6099292;29;20047;-80
2021/04/09 15:15:57;;;;;;;5.30;2.30;;;17.90;47.90;;;;;;6104293;29;20042;-80
2021/04/09 15:18:57;;;;;;;6.00;2.45;;;18.10;49.00;;;;;;6104043;29;20076;-80
2021/04/09 15:21:58;;;;;;;6.05;3.53;;;17.90;48.50;;;;;;6120554;29;20047;-81
2021/04/09 15:24:59;;;;;;;3.90;2.80;;;17.90;48.20;;;;;;6107882;29;20040;-80
2021/04/09 15:27:59;;;;;;;4.88;2.30;;;17.70;47.80;;;;;;6097875;29;20040;-80
2021/04/09 15:31:00;;;;;;;3.85;2.35;;;17.50;48.60;;;;;;6097128;29;20051;-81
2021/04/09 15:34:00;;;;;;;5.38;2.50;;;17.50;50.20;;;;;;6097456;29;20036;-80
2021/04/09 15:37:05;;;;;;;4.30;2.50;;;17.40;50.30;;;;;;6088009;29;20238;-80
2021/04/09 15:40:06;;;;;;;4.35;2.38;;;17.20;49.00;;;;;;6103862;29;20060;-80
2021/04/09 15:43:06;;;;;;;4.38;2.70;;;16.90;48.70;;;;;;6132917;28;20038;-80
2021/04/09 15:46:07;;;;;;;5.43;2.58;;;16.90;49.40;;;;;;6191729;28;20487;-80
2021/04/09 15:49:08;;;;;;;4.53;2.75;;;16.50;50.50;;;;;;6218473;28;20069;-80
2021/04/09 15:52:08;;;;;;;6.03;2.70;;;16.40;50.30;;;;;;6217182;28;20045;-80
2021/04/09 15:55:09;;;;;;;10.93;3.05;;;16.40;50.40;;;;;;6185960;28;20080;-81
2021/04/09 15:58:10;;;;;;;5.00;2.60;;;16.50;50.90;;;;;;6185835;28;20383;-79
2021/04/09 16:01:10;;;;;;;5.05;2.50;;;16.60;51.00;;;;;;6215288;28;20030;-80
2021/04/09 16:04:11;;;;;;;3.80;2.20;;;16.50;50.60;;;;;;6184997;28;20030;-81
2021/04/09 16:07:12;;;;;;;5.07;3.22;;;16.50;51.40;;;;;;6186049;28;20065;-80
2021/04/09 16:10:13;;;;;;;7.00;2.75;;;16.60;51.70;;;;;;6201314;28;20026;-80
2021/04/09 16:13:13;;;;;;;7.75;2.65;;;16.80;52.40;;;;;;6205179;28;20542;-81
2021/04/09 16:16:14;;;;;;;7.63;2.60;;;16.60;51.80;;;;;;6216880;28;20070;-81
2021/04/09 16:19:15;;;;;;;3.88;2.58;;;16.60;51.40;;;;;;6217138;28;20038;-81